Time;durP1;ratioP1;P1;durP2;ratioP2;P2;SDS_P1;SDS_P2;PMS_P1;PMS_P2;Temp;Humidity;BMP_temperature;BMP_pressure;BME280_temperature;BME280_humidity;BME280_pressure;Samples;Min_cycle;Max_cycle;Signal;HPM_P1;HPM_P2
2024/02/14 00:01:53;;;;;;;1.80;1.10;;;9.10;99.90;;;;;;5132913;27;20428;-69
2024/02/14 00:04:18;;;;;;;2.10;1.20;;;9.10;99.90;;;;;;5139305;27;20547;-68
2024/02/14 00:06:45;;;;;;;3.00;1.20;;;9.10;99.90;;;;;;5140017;27;20222;-68
2024/02/14 00:09:11;;;;;;;4.60;1.30;;;9.10;99.90;;;;;;5140113;27;20184;-68
2024/02/14 00:11:37;;;;;;;2.60;1.20;;;9.10;99.90;;;;;;5140031;27;20431;-67
2024/02/14 00:14:03;;;;;;;2.50;1.30;;;9.20;99.90;;;;;;5141278;27;20507;-68
2024/02/14 00:16:32;;;;;;;2.57;1.27;;;9.20;99.90;;;;;;5140263;27;20433;-68
2024/02/14 00:18:58;;;;;;;2.30;1.33;;;9.30;99.90;;;;;;5138295;27;20421;-67
2024/02/14 00:21:24;;;;;;;2.17;1.13;;;9.30;99.90;;;;;;5136307;27;20424;-67
2024/02/14 00:23:50;;;;;;;4.00;1.20;;;9.30;99.90;;;;;;5137131;27;20179;-67
2024/02/14 00:26:16;;;;;;;2.30;1.13;;;9.30;99.90;;;;;;5137083;27;20499;-68
2024/02/14 00:28:41;;;;;;;3.00;1.00;;;9.30;99.90;;;;;;5137716;27;20701;-67
2024/02/14 00:31:07;;;;;;;3.20;1.30;;;9.30;99.90;;;;;;5137157;27;20248;-67
2024/02/14 00:33:33;;;;;;;4.13;1.20;;;9.20;99.90;;;;;;5136572;27;20218;-67
2024/02/14 00:35:58;;;;;;;3.20;1.30;;;9.20;99.90;;;;;;5136867;27;20210;-68
2024/02/14 00:38:24;;;;;;;1.60;1.00;;;9.20;99.90;;;;;;5137611;27;20384;-67
2024/02/14 00:40:49;;;;;;;1.87;1.20;;;9.20;99.90;;;;;;5136741;27;20191;-67
2024/02/14 00:43:15;;;;;;;1.43;0.77;;;9.20;99.90;;;;;;5137895;27;20246;-67
2024/02/14 00:45:41;;;;;;;3.13;1.73;;;9.20;99.90;;;;;;5143377;27;20309;-67
2024/02/14 00:48:07;;;;;;;2.37;1.03;;;9.20;99.90;;;;;;5130626;27;20187;-66
2024/02/14 00:50:33;;;;;;;1.97;1.10;;;9.20;99.90;;;;;;5136180;27;20548;-67
2024/02/14 00:52:59;;;;;;;2.50;1.20;;;9.20;99.90;;;;;;5129854;27;20520;-67
2024/02/14 00:55:25;;;;;;;1.90;1.10;;;9.20;99.90;;;;;;5120495;27;20408;-67
2024/02/14 00:57:51;;;;;;;4.00;1.20;;;9.20;99.90;;;;;;5131462;27;20536;-67
2024/02/14 01:00:17;;;;;;;2.77;1.30;;;9.30;99.90;;;;;;5133064;27;20182;-66
2024/02/14 01:02:43;;;;;;;2.47;1.40;;;9.30;99.90;;;;;;5135592;27;20202;-66
2024/02/14 01:05:09;;;;;;;1.87;1.00;;;9.20;99.90;;;;;;5138211;27;20409;-66
2024/02/14 01:07:35;;;;;;;2.20;1.10;;;9.20;99.90;;;;;;5135534;27;20508;-67
2024/02/14 01:10:01;;;;;;;1.60;0.80;;;9.20;99.90;;;;;;5143701;27;20444;-67
2024/02/14 01:12:28;;;;;;;1.77;0.90;;;9.20;99.90;;;;;;5144909;27;20428;-68
2024/02/14 01:14:53;;;;;;;1.40;1.00;;;9.20;99.90;;;;;;5148348;27;20419;-67
2024/02/14 01:17:19;;;;;;;1.53;1.27;;;9.20;99.90;;;;;;5154108;27;20511;-68
2024/02/14 01:19:44;;;;;;;2.83;1.00;;;9.20;99.90;;;;;;5141611;27;20187;-67
2024/02/14 01:22:10;;;;;;;1.23;0.80;;;9.20;99.90;;;;;;5135642;27;20561;-68
2024/02/14 01:24:36;;;;;;;2.30;1.77;;;9.20;99.90;;;;;;5145836;27;20205;-66
2024/02/14 01:27:02;;;;;;;1.60;1.20;;;9.20;99.90;;;;;;5139621;27;20517;-67
2024/02/14 01:29:28;;;;;;;1.37;0.93;;;9.20;99.90;;;;;;5136141;27;20187;-68
2024/02/14 01:31:54;;;;;;;2.83;1.00;;;9.20;99.90;;;;;;5148446;27;20408;-67
2024/02/14 01:34:20;;;;;;;1.40;0.80;;;9.20;99.90;;;;;;5141532;27;20187;-67
2024/02/14 01:36:46;;;;;;;2.07;0.90;;;9.20;99.90;;;;;;5146851;27;20961;-66
2024/02/14 01:39:11;;;;;;;2.83;1.00;;;9.20;99.90;;;;;;5143691;27;20581;-67
2024/02/14 01:41:48;;;;;;;1.57;0.97;;;9.20;99.90;;;;;;5154509;27;20298;-68
2024/02/14 01:44:15;;;;;;;3.10;0.90;;;9.20;99.90;;;;;;5142486;27;20186;-66
2024/02/14 01:46:44;;;;;;;1.10;0.70;;;9.20;99.90;;;;;;5147330;27;20482;-68
2024/02/14 01:49:15;;;;;;;1.77;0.90;;;9.20;99.90;;;;;;5139870;27;20428;-67
2024/02/14 01:51:44;;;;;;;2.20;0.90;;;9.20;99.90;;;;;;5134665;27;20710;-67
2024/02/14 01:54:11;;;;;;;2.17;1.00;;;9.30;99.90;;;;;;5133968;27;20719;-67
2024/02/14 01:56:38;;;;;;;1.60;0.70;;;9.30;99.90;;;;;;5145469;27;20436;-66
2024/02/14 01:59:05;;;;;;;1.70;0.83;;;9.30;99.90;;;;;;5149759;27;20420;-67
2024/02/14 02:01:32;;;;;;;1.93;0.83;;;9.30;99.90;;;;;;5145338;27;20417;-68
2024/02/14 02:03:58;;;;;;;1.20;0.80;;;9.30;99.90;;;;;;5134986;27;20409;-67
2024/02/14 02:06:23;;;;;;;1.63;0.77;;;9.20;99.90;;;;;;5144536;27;20470;-67
2024/02/14 02:08:49;;;;;;;1.40;0.80;;;9.20;99.90;;;;;;5147313;27;20419;-66
2024/02/14 02:11:15;;;;;;;1.40;0.90;;;9.20;99.90;;;;;;5148500;27;20263;-68
2024/02/14 02:13:41;;;;;;;1.37;1.00;;;9.20;99.90;;;;;;5152366;27;20211;-67
2024/02/14 02:16:06;;;;;;;1.20;1.00;;;9.20;99.90;;;;;;5149137;27;20228;-66
2024/02/14 02:18:32;;;;;;;1.40;0.73;;;9.20;99.90;;;;;;5128794;27;20217;-66
2024/02/14 02:20:58;;;;;;;1.73;0.80;;;9.20;99.90;;;;;;5128699;27;20624;-67
2024/02/14 02:23:23;;;;;;;1.50;0.97;;;9.20;99.90;;;;;;5135329;27;20190;-66
2024/02/14 02:25:50;;;;;;;1.97;1.07;;;9.20;99.90;;;;;;5147480;27;20301;-67
2024/02/14 02:28:16;;;;;;;1.30;0.90;;;9.20;99.90;;;;;;5141312;27;20178;-67
2024/02/14 02:30:42;;;;;;;1.33;0.80;;;9.20;99.90;;;;;;5148061;27;20400;-67
2024/02/14 02:33:08;;;;;;;1.43;0.80;;;9.20;99.90;;;;;;5133544;27;20409;-66
2024/02/14 02:35:34;;;;;;;2.23;0.93;;;9.20;99.90;;;;;;5139374;27;20635;-67
2024/02/14 02:38:00;;;;;;;1.60;0.80;;;9.20;99.90;;;;;;5155376;27;20179;-68
2024/02/14 02:40:27;;;;;;;2.40;0.80;;;9.20;99.90;;;;;;5143208;27;20404;-66
2024/02/14 02:42:53;;;;;;;1.20;0.80;;;9.20;99.90;;;;;;5155279;27;20225;-67
2024/02/14 02:45:19;;;;;;;1.30;0.90;;;9.20;99.90;;;;;;5155329;27;20411;-66
2024/02/14 02:47:44;;;;;;;1.93;0.93;;;9.20;99.90;;;;;;5143648;27;20516;-67
2024/02/14 02:50:10;;;;;;;1.00;0.67;;;9.20;99.90;;;;;;5119466;28;20199;-68
2024/02/14 02:52:36;;;;;;;2.67;1.10;;;9.20;99.90;;;;;;5132145;27;20179;-69
2024/02/14 02:55:01;;;;;;;1.97;0.80;;;9.30;99.90;;;;;;5141944;27;20255;-66
2024/02/14 02:57:29;;;;;;;1.47;1.03;;;9.30;99.90;;;;;;5138768;27;20226;-67
2024/02/14 02:59:55;;;;;;;1.37;0.90;;;9.30;99.90;;;;;;5152074;27;20194;-67
2024/02/14 03:02:20;;;;;;;2.10;0.70;;;9.30;99.90;;;;;;5159455;27;20869;-67
2024/02/14 03:04:46;;;;;;;3.63;0.77;;;9.30;99.90;;;;;;5153072;27;20175;-66
2024/02/14 03:07:12;;;;;;;2.13;1.00;;;9.30;99.90;;;;;;5140520;27;20226;-66
2024/02/14 03:09:38;;;;;;;1.70;0.80;;;9.30;99.90;;;;;;5138171;27;20460;-67
2024/02/14 03:12:04;;;;;;;2.03;1.17;;;9.30;99.90;;;;;;5152063;27;20186;-67
2024/02/14 03:14:32;;;;;;;1.37;1.03;;;9.30;99.90;;;;;;5151976;27;20579;-66
2024/02/14 03:17:01;;;;;;;1.33;0.83;;;9.40;99.90;;;;;;5152755;27;20545;-67
2024/02/14 03:19:27;;;;;;;1.33;0.90;;;9.40;99.90;;;;;;5127148;27;20425;-67
2024/02/14 03:21:54;;;;;;;1.30;0.73;;;9.40;99.90;;;;;;5140081;27;20412;-67
2024/02/14 03:24:20;;;;;;;1.30;0.80;;;9.40;99.90;;;;;;5153657;27;20683;-67
2024/02/14 03:26:45;;;;;;;1.50;1.00;;;9.40;99.90;;;;;;5140618;27;20455;-68
2024/02/14 03:29:12;;;;;;;2.20;0.97;;;9.40;99.90;;;;;;5142902;27;20415;-67
2024/02/14 03:31:37;;;;;;;2.70;0.80;;;9.50;99.90;;;;;;5144127;27;20186;-67
2024/02/14 03:34:03;;;;;;;1.00;0.70;;;9.40;99.90;;;;;;5136939;27;20421;-67
2024/02/14 03:36:30;;;;;;;1.53;1.43;;;9.40;99.90;;;;;;5138501;27;20235;-67
2024/02/14 03:38:56;;;;;;;1.10;0.80;;;9.50;99.90;;;;;;5151246;27;20190;-67
2024/02/14 03:41:22;;;;;;;1.37;0.87;;;9.50;99.90;;;;;;5149739;27;20451;-67
2024/02/14 03:43:50;;;;;;;1.40;0.90;;;9.50;99.90;;;;;;5156093;27;20708;-67
2024/02/14 03:46:16;;;;;;;2.03;1.20;;;9.50;99.90;;;;;;5144849;27;20513;-67
2024/02/14 03:48:43;;;;;;;1.07;0.77;;;9.50;99.90;;;;;;5148802;27;20404;-67
2024/02/14 03:51:09;;;;;;;1.10;0.70;;;9.50;99.90;;;;;;5138077;27;20248;-68
2024/02/14 03:53:34;;;;;;;1.53;1.00;;;9.50;99.90;;;;;;5138774;27;20787;-67
2024/02/14 03:56:00;;;;;;;1.80;1.03;;;9.50;99.90;;;;;;5137308;27;20618;-68
2024/02/14 03:58:26;;;;;;;2.30;1.23;;;9.50;99.90;;;;;;5155264;27;20220;-67
2024/02/14 04:00:52;;;;;;;3.13;1.47;;;9.50;99.90;;;;;;5147168;27;20423;-68
2024/02/14 04:03:18;;;;;;;1.80;1.43;;;9.50;99.90;;;;;;5148129;27;20420;-67
2024/02/14 04:05:44;;;;;;;2.67;1.17;;;9.50;99.90;;;;;;5137164;27;20563;-68
2024/02/14 04:08:10;;;;;;;1.70;1.20;;;9.50;99.90;;;;;;5138068;27;20446;-67
2024/02/14 04:10:37;;;;;;;1.37;0.80;;;9.50;99.90;;;;;;5147096;27;20412;-67
2024/02/14 04:13:05;;;;;;;2.17;0.97;;;9.50;99.90;;;;;;5137336;27;20749;-66
2024/02/14 04:15:32;;;;;;;2.43;0.90;;;9.50;99.90;;;;;;5146653;27;20435;-67
2024/02/14 04:17:59;;;;;;;2.40;1.00;;;9.50;99.90;;;;;;5155092;27;20710;-67
2024/02/14 04:20:25;;;;;;;1.73;0.73;;;9.60;99.90;;;;;;5156591;27;20443;-68
2024/02/14 04:22:51;;;;;;;1.47;0.90;;;9.60;99.90;;;;;;5135915;27;20397;-67
2024/02/14 04:25:16;;;;;;;2.00;1.17;;;9.60;99.90;;;;;;5137412;27;20397;-66
2024/02/14 04:27:42;;;;;;;1.47;0.80;;;9.60;99.90;;;;;;5137452;27;20268;-67
2024/02/14 04:30:08;;;;;;;2.47;1.00;;;9.60;99.90;;;;;;5137936;27;20183;-68
2024/02/14 04:32:34;;;;;;;1.40;0.90;;;9.60;99.90;;;;;;5138454;27;20228;-67
2024/02/14 04:34:59;;;;;;;2.23;1.10;;;9.60;99.90;;;;;;5139462;27;20427;-67
2024/02/14 04:37:25;;;;;;;3.13;1.10;;;9.60;99.90;;;;;;5138427;27;20298;-68
2024/02/14 04:39:50;;;;;;;2.40;1.10;;;9.60;99.90;;;;;;5152728;27;20589;-68
2024/02/14 04:42:16;;;;;;;2.37;1.17;;;9.60;99.90;;;;;;5152482;27;20219;-68
2024/02/14 04:44:42;;;;;;;2.67;1.40;;;9.60;99.90;;;;;;5141787;27;20187;-69
2024/02/14 04:47:09;;;;;;;1.83;1.00;;;9.60;99.90;;;;;;5136524;27;20211;-68
2024/02/14 04:49:35;;;;;;;1.93;0.90;;;9.60;99.90;;;;;;5134938;27;20190;-66
2024/02/14 04:52:01;;;;;;;2.00;1.00;;;9.60;99.90;;;;;;5116948;27;20468;-67
2024/02/14 04:54:27;;;;;;;1.40;1.10;;;9.70;99.90;;;;;;5133670;27;20191;-68
2024/02/14 04:56:53;;;;;;;3.53;1.10;;;9.70;99.90;;;;;;5144284;27;20203;-68
2024/02/14 04:59:19;;;;;;;2.30;1.50;;;9.60;99.90;;;;;;5141620;27;20873;-67
2024/02/14 05:01:45;;;;;;;4.60;1.40;;;9.60;99.90;;;;;;5145577;27;20585;-68
2024/02/14 05:04:12;;;;;;;2.33;1.63;;;9.60;99.90;;;;;;5135862;27;20537;-68
2024/02/14 05:06:38;;;;;;;3.17;1.80;;;9.60;99.90;;;;;;5137286;27;20448;-68
2024/02/14 05:09:05;;;;;;;2.13;1.37;;;9.60;99.90;;;;;;5152311;27;20703;-68
2024/02/14 05:11:31;;;;;;;1.50;1.10;;;9.60;99.90;;;;;;5141584;27;20236;-70
2024/02/14 05:13:57;;;;;;;1.83;1.20;;;9.60;99.90;;;;;;5145488;27;20405;-68
2024/02/14 05:16:23;;;;;;;2.20;1.27;;;9.60;99.90;;;;;;5163825;27;20239;-69
2024/02/14 05:18:49;;;;;;;2.80;1.10;;;9.60;99.90;;;;;;5153417;27;20209;-70
2024/02/14 05:21:15;;;;;;;1.73;0.90;;;9.60;99.90;;;;;;5127899;27;20195;-68
2024/02/14 05:23:40;;;;;;;1.30;0.90;;;9.60;99.90;;;;;;5137584;27;20469;-69
2024/02/14 05:26:06;;;;;;;1.87;0.90;;;9.60;99.90;;;;;;5137495;27;20685;-67
2024/02/14 05:28:32;;;;;;;2.40;0.90;;;9.70;99.90;;;;;;5155851;27;20217;-68
2024/02/14 05:30:59;;;;;;;1.73;1.10;;;9.60;99.90;;;;;;5155974;27;20400;-69
2024/02/14 05:33:24;;;;;;;1.83;1.17;;;9.60;99.90;;;;;;5135149;27;20262;-66
2024/02/14 05:35:53;;;;;;;1.53;0.97;;;9.70;99.90;;;;;;5141154;27;20456;-69
2024/02/14 05:38:19;;;;;;;2.17;1.00;;;9.70;99.90;;;;;;5137983;27;20259;-67
2024/02/14 05:40:48;;;;;;;1.77;1.30;;;9.70;99.90;;;;;;5137491;27;20859;-68
2024/02/14 05:43:14;;;;;;;1.90;1.13;;;9.70;99.90;;;;;;5127494;27;20488;-68
2024/02/14 05:45:40;;;;;;;3.37;1.93;;;9.70;99.90;;;;;;5131448;27;20490;-67
2024/02/14 05:48:07;;;;;;;1.93;1.13;;;9.70;99.90;;;;;;5130105;27;20419;-68
2024/02/14 05:50:33;;;;;;;2.33;1.30;;;9.70;99.90;;;;;;5137621;27;20429;-67
2024/02/14 05:52:59;;;;;;;3.80;1.40;;;9.70;99.90;;;;;;5137755;27;20412;-68
2024/02/14 05:55:25;;;;;;;4.93;2.90;;;9.60;99.90;;;;;;5138225;27;20761;-67
2024/02/14 05:57:54;;;;;;;2.00;1.60;;;9.60;99.90;;;;;;5140295;27;20183;-68
2024/02/14 06:00:20;;;;;;;1.80;1.40;;;9.50;99.90;;;;;;5139705;27;20301;-70
2024/02/14 06:02:49;;;;;;;3.30;1.90;;;9.50;99.90;;;;;;5133237;27;20405;-68
2024/02/14 06:05:15;;;;;;;3.13;2.03;;;9.50;99.90;;;;;;5149688;27;20385;-69
2024/02/14 06:07:41;;;;;;;5.70;3.03;;;9.50;99.90;;;;;;5137429;27;20479;-68
2024/02/14 06:10:08;;;;;;;3.60;2.20;;;9.40;99.90;;;;;;5140120;27;20420;-70
2024/02/14 06:12:35;;;;;;;3.10;1.40;;;9.40;99.90;;;;;;5143876;27;20404;-70
2024/02/14 06:15:01;;;;;;;3.53;2.80;;;9.40;99.90;;;;;;5145221;27;20411;-72
2024/02/14 06:17:27;;;;;;;2.17;1.40;;;9.30;99.90;;;;;;5143882;27;20721;-68
2024/02/14 06:19:53;;;;;;;2.93;1.97;;;9.30;99.90;;;;;;5140924;27;20435;-69
2024/02/14 06:22:20;;;;;;;3.33;2.07;;;9.30;99.90;;;;;;5139040;27;20183;-72
2024/02/14 06:24:48;;;;;;;3.03;1.67;;;9.30;99.90;;;;;;5139306;27;20508;-71
2024/02/14 06:27:14;;;;;;;2.17;1.47;;;9.30;99.90;;;;;;5139774;27;20747;-71
2024/02/14 06:29:42;;;;;;;4.10;1.40;;;9.40;99.90;;;;;;5146891;27;20421;-72
2024/02/14 06:32:08;;;;;;;3.40;1.93;;;9.40;99.90;;;;;;5123672;27;20425;-70
2024/02/14 06:34:33;;;;;;;3.00;1.87;;;9.50;99.90;;;;;;5138543;27;20884;-72
2024/02/14 06:36:59;;;;;;;2.00;1.60;;;9.50;99.90;;;;;;5139225;27;20350;-71
2024/02/14 06:39:25;;;;;;;2.70;2.00;;;9.60;99.90;;;;;;5138423;27;20191;-71
2024/02/14 06:41:50;;;;;;;2.50;1.93;;;9.60;99.90;;;;;;5137622;27;20215;-71
2024/02/14 06:44:16;;;;;;;3.50;2.00;;;9.60;99.90;;;;;;5138147;28;20586;-70
2024/02/14 06:46:42;;;;;;;2.13;1.40;;;9.70;99.90;;;;;;5139890;28;20206;-70
2024/02/14 06:49:08;;;;;;;2.63;2.17;;;9.70;99.90;;;;;;5139866;27;20179;-73
2024/02/14 06:51:34;;;;;;;1.47;1.30;;;9.80;99.90;;;;;;5140169;28;20428;-70
2024/02/14 06:54:00;;;;;;;2.30;1.60;;;9.80;99.90;;;;;;5138018;28;20772;-71
2024/02/14 06:56:25;;;;;;;2.90;1.30;;;9.80;99.90;;;;;;5120768;28;20199;-71
2024/02/14 06:58:53;;;;;;;1.97;1.20;;;9.80;99.90;;;;;;5138515;28;20183;-69
2024/02/14 07:01:22;;;;;;;3.17;1.83;;;9.80;99.90;;;;;;5137434;28;20209;-70
2024/02/14 07:03:48;;;;;;;2.73;1.70;;;9.80;99.90;;;;;;5137469;28;20432;-69
2024/02/14 07:06:14;;;;;;;3.10;1.50;;;9.80;99.90;;;;;;5137873;28;20464;-69
2024/02/14 07:08:42;;;;;;;2.70;1.90;;;9.80;99.90;;;;;;5137991;28;20420;-72
2024/02/14 07:11:08;;;;;;;2.13;1.90;;;9.90;99.90;;;;;;5119419;28;20405;-70
2024/02/14 07:13:34;;;;;;;4.53;1.53;;;9.90;99.90;;;;;;5137676;28;20543;-69
2024/02/14 07:16:00;;;;;;;3.30;1.70;;;9.90;99.90;;;;;;5139878;28;20630;-72
2024/02/14 07:18:26;;;;;;;4.83;2.00;;;9.90;99.90;;;;;;5137420;27;20436;-69
2024/02/14 07:20:51;;;;;;;2.70;1.97;;;9.90;99.90;;;;;;5138016;28;20662;-69
2024/02/14 07:23:19;;;;;;;2.53;1.80;;;9.90;99.90;;;;;;5138931;28;20199;-73
2024/02/14 07:25:44;;;;;;;3.23;1.83;;;9.90;99.90;;;;;;5137673;28;20661;-69
2024/02/14 07:28:10;;;;;;;3.10;1.30;;;9.90;99.90;;;;;;5138112;28;20407;-70
2024/02/14 07:30:36;;;;;;;4.37;1.50;;;10.00;99.90;;;;;;5137694;28;20574;-71
2024/02/14 07:33:02;;;;;;;2.10;1.50;;;9.90;99.90;;;;;;5137937;28;20570;-68
2024/02/14 07:35:27;;;;;;;1.57;1.37;;;10.00;99.90;;;;;;5119607;28;20203;-71
2024/02/14 07:37:53;;;;;;;2.43;1.40;;;10.00;99.90;;;;;;5138556;28;20171;-70
2024/02/14 07:40:19;;;;;;;2.50;1.37;;;10.00;99.90;;;;;;5130386;27;20199;-69
2024/02/14 07:42:44;;;;;;;3.00;1.20;;;10.10;99.90;;;;;;5124973;27;20239;-70
2024/02/14 07:45:10;;;;;;;1.77;1.20;;;10.10;99.90;;;;;;5134510;27;20192;-70
2024/02/14 07:47:36;;;;;;;3.57;1.73;;;10.10;99.90;;;;;;5132686;27;20245;-72
2024/02/14 07:50:02;;;;;;;3.17;1.50;;;10.10;99.90;;;;;;5141847;27;20672;-70
2024/02/14 07:52:28;;;;;;;1.73;1.20;;;10.20;99.90;;;;;;5148764;27;20218;-71
2024/02/14 07:54:55;;;;;;;4.50;1.70;;;10.20;99.90;;;;;;5143670;27;20420;-75
2024/02/14 07:57:25;;;;;;;2.17;1.77;;;10.30;99.90;;;;;;5144982;27;20195;-72
2024/02/14 07:59:51;;;;;;;2.43;1.27;;;10.30;99.90;;;;;;5141455;27;20845;-69
2024/02/14 08:02:18;;;;;;;1.93;1.47;;;10.40;99.90;;;;;;5143149;27;20413;-71
2024/02/14 08:04:43;;;;;;;6.57;2.40;;;10.50;99.90;;;;;;5143336;27;20449;-69
2024/02/14 08:07:10;;;;;;;2.60;1.30;;;10.60;99.90;;;;;;5145014;27;20484;-72
2024/02/14 08:09:36;;;;;;;2.63;1.40;;;10.60;99.90;;;;;;5128862;27;20199;-71
2024/02/14 08:12:01;;;;;;;1.97;1.50;;;10.70;99.90;;;;;;5118624;27;20527;-70
2024/02/14 08:14:27;;;;;;;2.17;1.23;;;10.70;99.90;;;;;;5142005;27;20437;-73
2024/02/14 08:16:53;;;;;;;2.70;1.40;;;10.80;99.90;;;;;;5142478;27;20449;-70
2024/02/14 08:19:18;;;;;;;2.63;1.10;;;10.80;99.90;;;;;;5140560;27;20186;-69
2024/02/14 08:21:44;;;;;;;1.50;1.20;;;10.90;99.90;;;;;;5145447;27;20343;-71
2024/02/14 08:24:10;;;;;;;1.67;1.23;;;11.00;99.90;;;;;;5142983;27;20187;-71
2024/02/14 08:26:36;;;;;;;1.77;1.10;;;11.10;99.90;;;;;;5123526;27;20493;-71
2024/02/14 08:29:02;;;;;;;1.97;1.30;;;11.20;99.90;;;;;;5123364;27;20194;-71
2024/02/14 08:31:27;;;;;;;2.17;1.30;;;11.30;99.90;;;;;;5144233;27;20273;-70
2024/02/14 08:33:53;;;;;;;2.40;1.20;;;11.40;99.90;;;;;;5141031;27;20273;-70
2024/02/14 08:36:19;;;;;;;2.30;1.50;;;11.50;99.90;;;;;;5142869;27;20210;-73
2024/02/14 08:38:45;;;;;;;2.17;1.47;;;11.60;99.90;;;;;;5141897;27;20418;-72
2024/02/14 08:41:12;;;;;;;2.93;1.43;;;11.60;99.90;;;;;;5105751;27;20578;-72
2024/02/14 08:43:37;;;;;;;2.47;1.60;;;11.70;99.90;;;;;;5139681;27;20199;-72
2024/02/14 08:46:03;;;;;;;1.63;1.17;;;11.80;99.90;;;;;;5141051;27;20482;-70
2024/02/14 08:48:32;;;;;;;4.53;1.37;;;11.80;99.90;;;;;;5124623;27;20251;-71
2024/02/14 08:50:58;;;;;;;2.23;1.20;;;11.80;99.90;;;;;;5142812;27;20189;-70
2024/02/14 08:53:24;;;;;;;1.70;1.07;;;11.80;99.90;;;;;;5143398;27;20511;-70
2024/02/14 08:55:49;;;;;;;4.37;2.13;;;11.90;99.90;;;;;;5141597;27;20252;-72
2024/02/14 08:58:15;;;;;;;2.13;1.40;;;11.90;99.90;;;;;;5139644;27;20175;-70
2024/02/14 09:00:40;;;;;;;2.43;1.50;;;12.00;99.90;;;;;;5144270;27;20183;-71
2024/02/14 09:03:06;;;;;;;3.20;1.60;;;12.00;99.90;;;;;;5145348;27;20256;-73
2024/02/14 09:05:32;;;;;;;3.60;1.50;;;12.10;99.90;;;;;;5131958;27;20206;-69
2024/02/14 09:07:59;;;;;;;2.53;1.70;;;12.20;99.90;;;;;;5128030;27;20201;-69
2024/02/14 09:10:24;;;;;;;2.63;1.63;;;12.30;99.90;;;;;;5143769;27;20420;-73
2024/02/14 09:12:50;;;;;;;1.77;1.20;;;12.20;99.90;;;;;;5142758;27;20423;-70
2024/02/14 09:15:16;;;;;;;2.60;1.13;;;12.30;99.90;;;;;;5142175;27;20224;-69
2024/02/14 09:17:41;;;;;;;2.33;1.30;;;12.30;99.90;;;;;;5135906;27;20208;-71
2024/02/14 09:20:09;;;;;;;2.40;1.33;;;12.30;99.90;;;;;;5140852;27;20214;-73
2024/02/14 09:22:38;;;;;;;5.60;1.47;;;12.30;99.90;;;;;;5110198;27;20237;-71
2024/02/14 09:25:05;;;;;;;1.80;1.23;;;12.40;99.90;;;;;;5143274;27;20439;-70
2024/02/14 09:27:31;;;;;;;3.70;1.53;;;12.50;99.90;;;;;;5142396;27;20470;-71
2024/02/14 09:29:57;;;;;;;2.93;1.50;;;12.60;99.90;;;;;;5143071;27;20745;-70
2024/02/14 09:32:22;;;;;;;2.67;1.73;;;12.70;99.90;;;;;;5142464;27;20416;-70
2024/02/14 09:34:48;;;;;;;4.13;1.60;;;12.80;99.90;;;;;;5140569;27;20267;-70
2024/02/14 09:37:14;;;;;;;6.20;2.13;;;13.00;99.90;;;;;;5123230;27;20456;-70
2024/02/14 09:39:40;;;;;;;5.13;1.30;;;13.10;99.90;;;;;;5143366;27;20186;-68
2024/02/14 09:42:12;;;;;;;3.40;1.60;;;13.30;99.90;;;;;;5142673;27;20509;-71
2024/02/14 09:44:39;;;;;;;3.83;1.40;;;13.40;99.90;;;;;;5125862;27;20214;-75
2024/02/14 09:47:07;;;;;;;3.90;1.30;;;13.50;99.90;;;;;;5142359;27;20456;-72
2024/02/14 09:49:34;;;;;;;4.00;1.67;;;13.50;99.90;;;;;;5143158;27;20409;-73
2024/02/14 09:52:02;;;;;;;2.97;1.67;;;13.70;99.90;;;;;;5123623;27;20432;-72
2024/02/14 09:54:31;;;;;;;1.90;1.20;;;13.70;99.90;;;;;;5124376;27;20409;-72
2024/02/14 09:56:58;;;;;;;1.90;1.00;;;13.80;99.90;;;;;;5142504;27;20459;-72
2024/02/14 09:59:24;;;;;;;2.33;1.10;;;13.90;99.90;;;;;;5145215;27;20411;-71
2024/02/14 10:01:51;;;;;;;2.23;1.13;;;13.90;99.90;;;;;;5142614;27;20413;-71
2024/02/14 10:04:18;;;;;;;1.87;0.90;;;13.80;99.90;;;;;;5141567;27;20514;-72
2024/02/14 10:06:45;;;;;;;2.50;1.20;;;13.70;99.90;;;;;;5145575;27;20636;-72
2024/02/14 10:09:10;;;;;;;4.90;1.60;;;13.70;99.90;;;;;;5141384;27;20443;-70
2024/02/14 10:11:37;;;;;;;1.60;1.10;;;13.70;99.90;;;;;;5141218;27;20413;-70
2024/02/14 10:14:08;;;;;;;3.30;1.50;;;13.70;99.90;;;;;;5140887;27;20183;-73
2024/02/14 10:16:35;;;;;;;2.60;1.13;;;13.70;99.90;;;;;;5122515;27;20441;-71
2024/02/14 10:19:01;;;;;;;2.47;1.27;;;13.80;99.90;;;;;;5140982;27;20501;-71
2024/02/14 10:21:28;;;;;;;2.27;1.20;;;13.70;99.90;;;;;;5141762;27;20843;-69
2024/02/14 10:23:57;;;;;;;2.00;1.10;;;13.70;99.90;;;;;;5123257;27;20428;-74
2024/02/14 10:26:23;;;;;;;2.37;1.20;;;13.60;99.90;;;;;;5122700;27;20479;-70
2024/02/14 10:28:50;;;;;;;3.60;1.33;;;13.50;99.90;;;;;;5141730;27;20505;-71
2024/02/14 10:31:16;;;;;;;3.00;1.43;;;13.50;99.90;;;;;;5142870;27;20187;-71
2024/02/14 10:33:41;;;;;;;3.40;1.93;;;13.50;99.90;;;;;;5141143;27;20420;-70
2024/02/14 10:36:08;;;;;;;3.50;1.60;;;13.60;99.90;;;;;;5140178;27;20732;-70
2024/02/14 10:38:34;;;;;;;3.13;1.30;;;13.70;99.90;;;;;;5124825;27;20194;-71
2024/02/14 10:41:01;;;;;;;4.13;1.90;;;13.80;99.90;;;;;;5122171;27;20504;-69
2024/02/14 10:43:27;;;;;;;2.17;1.37;;;14.00;99.90;;;;;;5110595;28;20826;-71
2024/02/14 10:45:58;;;;;;;4.90;1.77;;;14.00;99.90;;;;;;5124720;28;20437;-71
2024/02/14 10:48:25;;;;;;;4.23;2.00;;;14.10;99.90;;;;;;5117937;28;20421;-72
2024/02/14 10:50:53;;;;;;;3.50;1.60;;;14.30;99.90;;;;;;5117829;28;20425;-74
2024/02/14 10:53:20;;;;;;;4.03;1.60;;;14.40;99.90;;;;;;5105810;28;20418;-74
2024/02/14 10:55:48;;;;;;;3.20;1.30;;;14.40;99.90;;;;;;5115896;28;20430;-73
2024/02/14 10:58:17;;;;;;;3.97;1.50;;;14.40;99.90;;;;;;5101439;28;20742;-72
2024/02/14 11:00:44;;;;;;;4.37;1.67;;;14.40;99.90;;;;;;5097243;28;20445;-69
2024/02/14 11:03:10;;;;;;;5.20;1.83;;;14.50;99.90;;;;;;5123349;28;20570;-72
2024/02/14 11:05:46;;;;;;;3.97;1.30;;;14.40;99.90;;;;;;5117139;28;20421;-73
2024/02/14 11:08:23;;;;;;;4.10;1.80;;;14.50;99.90;;;;;;5118903;28;20689;-73
2024/02/14 11:10:56;;;;;;;2.73;1.67;;;14.50;99.90;;;;;;5093169;28;20435;-72
2024/02/14 11:13:27;;;;;;;3.60;1.83;;;14.50;99.90;;;;;;5114446;28;20410;-71
2024/02/14 11:15:55;;;;;;;5.33;2.17;;;14.50;99.90;;;;;;5117198;28;20430;-72
2024/02/14 11:18:30;;;;;;;4.50;1.60;;;14.50;99.90;;;;;;5125397;28;20848;-71
2024/02/14 11:20:57;;;;;;;4.60;1.63;;;14.50;99.90;;;;;;5109410;27;20457;-70
2024/02/14 11:23:23;;;;;;;5.90;1.53;;;14.40;99.90;;;;;;5123675;28;20509;-72
2024/02/14 11:25:49;;;;;;;3.30;1.60;;;14.20;99.90;;;;;;5117278;28;20458;-71
2024/02/14 11:28:19;;;;;;;3.03;2.00;;;14.10;99.90;;;;;;5111628;28;20180;-71
2024/02/14 11:30:45;;;;;;;2.53;1.27;;;14.10;99.90;;;;;;5115974;28;20186;-71
2024/02/14 11:33:24;;;;;;;2.70;1.80;;;14.10;99.90;;;;;;5119948;28;20464;-73
2024/02/14 11:35:52;;;;;;;2.87;1.50;;;14.00;99.90;;;;;;5116532;28;20222;-75
2024/02/14 11:38:26;;;;;;;3.33;2.00;;;14.00;99.90;;;;;;5076615;28;20406;-71
2024/02/14 11:40:58;;;;;;;2.93;1.70;;;14.00;99.90;;;;;;5126519;28;20452;-70
2024/02/14 11:43:24;;;;;;;4.50;2.10;;;14.00;99.90;;;;;;5088200;28;20686;-73
2024/02/14 11:45:50;;;;;;;3.33;1.43;;;14.10;99.90;;;;;;5107652;28;20798;-73
2024/02/14 11:48:17;;;;;;;2.80;1.07;;;14.20;99.90;;;;;;5120734;28;20434;-71
2024/02/14 11:50:44;;;;;;;4.33;2.40;;;14.30;99.90;;;;;;5079192;28;20638;-74
2024/02/14 11:53:19;;;;;;;3.23;2.13;;;14.40;99.90;;;;;;5113011;28;20422;-72
2024/02/14 11:55:48;;;;;;;3.00;1.40;;;14.50;99.90;;;;;;5124993;28;20464;-72
2024/02/14 11:58:15;;;;;;;3.43;1.40;;;14.40;99.90;;;;;;5106292;28;20895;-72
2024/02/14 12:00:45;;;;;;;2.70;1.50;;;14.40;99.90;;;;;;5116917;28;20460;-71
2024/02/14 12:03:15;;;;;;;3.20;1.50;;;14.50;99.90;;;;;;5126333;28;20413;-74
2024/02/14 12:05:43;;;;;;;6.53;1.73;;;14.60;99.90;;;;;;5126295;28;20934;-71
2024/02/14 12:08:09;;;;;;;2.87;1.20;;;14.50;99.90;;;;;;5124781;28;20425;-74
2024/02/14 12:10:37;;;;;;;2.03;1.20;;;14.50;99.90;;;;;;5113761;28;20424;-74
2024/02/14 12:13:13;;;;;;;2.73;1.17;;;14.50;99.90;;;;;;5117842;28;20842;-73
2024/02/14 12:15:40;;;;;;;4.33;1.53;;;14.50;99.90;;;;;;5105475;28;20444;-73
2024/02/14 12:18:07;;;;;;;2.30;1.03;;;14.50;99.90;;;;;;5114892;28;20417;-73
2024/02/14 12:20:33;;;;;;;1.83;0.90;;;14.40;99.90;;;;;;5122629;28;20433;-74
2024/02/14 12:23:00;;;;;;;2.27;1.20;;;14.40;99.90;;;;;;5104825;28;20700;-73
2024/02/14 12:25:26;;;;;;;2.07;1.40;;;14.40;99.90;;;;;;5106903;28;20426;-71
2024/02/14 12:27:52;;;;;;;2.73;1.60;;;14.40;99.90;;;;;;5121245;28;20442;-71
2024/02/14 12:30:21;;;;;;;3.70;1.50;;;14.20;99.90;;;;;;5098154;28;20422;-73
2024/02/14 12:32:58;;;;;;;2.30;1.60;;;14.20;99.90;;;;;;5103914;28;20420;-71
2024/02/14 12:35:23;;;;;;;3.33;1.60;;;14.20;99.90;;;;;;5124236;28;20717;-71
2024/02/14 12:37:49;;;;;;;3.50;1.23;;;14.20;99.90;;;;;;5105634;28;20398;-74
2024/02/14 12:40:15;;;;;;;2.60;1.40;;;14.30;99.90;;;;;;5125444;28;20501;-74
2024/02/14 12:42:40;;;;;;;2.00;1.30;;;14.40;99.90;;;;;;5138935;27;20223;-74
2024/02/14 12:45:07;;;;;;;2.60;1.93;;;14.50;99.90;;;;;;5146097;27;20450;-75
2024/02/14 12:47:34;;;;;;;2.92;1.50;;;14.50;99.90;;;;;;5146209;27;20437;-74
2024/02/14 12:50:00;;;;;;;1.97;1.10;;;14.60;99.90;;;;;;5147848;27;20187;-75